createdAt,value
2018-02-03T00:02:11.127Z,6.72
2018-02-03T00:04:38.040Z,8.18
2018-02-03T00:07:04.972Z,6.62
2018-02-03T00:09:31.880Z,5.57
2018-02-03T00:11:58.820Z,6.53
2018-02-03T00:14:25.768Z,5.90
2018-02-03T00:16:52.669Z,6.00
2018-02-03T00:19:20.369Z,4.82
2018-02-03T00:21:47.298Z,5.32
2018-02-03T00:24:16.115Z,5.70
2018-02-03T00:26:43.039Z,5.70
2018-02-03T00:29:10.877Z,6.75
2018-02-03T00:31:38.572Z,5.03
2018-02-03T00:34:05.487Z,6.10
2018-02-03T00:36:32.429Z,5.30
2018-02-03T00:39:00.108Z,5.35
2018-02-03T00:41:27.036Z,5.00
2018-02-03T00:43:54.729Z,5.82
2018-02-03T00:46:21.665Z,5.00
2018-02-03T00:48:48.572Z,5.95
2018-02-03T00:51:15.507Z,5.30
2018-02-03T00:53:42.411Z,5.78
2018-02-03T00:56:09.354Z,6.22
2018-02-03T00:58:36.269Z,4.43
2018-02-03T01:01:03.188Z,6.07
2018-02-03T01:03:30.127Z,4.95
2018-02-03T01:05:57.030Z,4.80
2018-02-03T01:08:23.965Z,4.85
2018-02-03T01:10:50.875Z,3.80
2018-02-03T01:13:17.808Z,3.97
2018-02-03T01:15:46.738Z,4.10
2018-02-03T01:18:13.644Z,4.25
2018-02-03T01:20:40.548Z,4.53
2018-02-03T01:23:07.861Z,3.97
2018-02-03T01:25:35.531Z,3.60
2018-02-03T01:28:03.199Z,4.10
2018-02-03T01:30:30.124Z,3.80
2018-02-03T01:32:57.827Z,4.75
2018-02-03T01:35:25.647Z,4.82
2018-02-03T01:37:52.574Z,3.83
2018-02-03T01:40:19.476Z,3.75
2018-02-03T01:42:46.396Z,4.72
2018-02-03T01:45:14.057Z,4.55
2018-02-03T01:47:52.590Z,4.50
2018-02-03T01:50:19.491Z,4.60
2018-02-03T01:52:46.424Z,4.25
2018-02-03T01:55:13.332Z,4.65
2018-02-03T01:57:40.277Z,4.28
2018-02-03T02:00:07.176Z,3.90
2018-02-03T02:02:34.103Z,3.55
2018-02-03T02:05:01.015Z,4.37
2018-02-03T02:07:27.948Z,5.40
2018-02-03T02:09:54.852Z,4.65
2018-02-03T02:12:21.782Z,3.53
2018-02-03T02:14:48.706Z,4.35
2018-02-03T02:17:16.546Z,4.15
2018-02-03T02:19:43.456Z,4.50
2018-02-03T02:22:11.168Z,4.20
2018-02-03T02:24:38.093Z,4.55
2018-02-03T02:27:05.000Z,4.60
2018-02-03T02:29:31.924Z,3.80
2018-02-03T02:31:59.596Z,4.43
2018-02-03T02:34:26.540Z,4.85
2018-02-03T02:36:53.457Z,4.07
2018-02-03T02:39:20.407Z,4.07
2018-02-03T02:41:47.348Z,4.03
2018-02-03T02:44:14.297Z,4.85
2018-02-03T02:46:41.976Z,5.22
2018-02-03T02:49:08.921Z,4.15
2018-02-03T02:51:35.833Z,3.90
2018-02-03T02:54:02.767Z,4.40
2018-02-03T02:56:29.664Z,4.20
2018-02-03T02:58:57.566Z,4.35
2018-02-03T03:01:24.469Z,4.50
2018-02-03T03:03:51.404Z,4.93
2018-02-03T03:06:18.340Z,4.85
2018-02-03T03:08:46.177Z,5.93
2018-02-03T03:11:13.072Z,4.22
2018-02-03T03:13:40.000Z,5.03
2018-02-03T03:16:06.916Z,5.30
2018-02-03T03:18:33.847Z,5.32
2018-02-03T03:21:00.748Z,6.03
2018-02-03T03:23:27.667Z,6.10
2018-02-03T03:25:54.571Z,5.00
2018-02-03T03:28:21.479Z,4.93
2018-02-03T03:30:48.415Z,4.87
2018-02-03T03:33:15.344Z,4.45
2018-02-03T03:35:42.244Z,4.45
2018-02-03T03:38:09.168Z,4.70
2018-02-03T03:40:36.842Z,5.07
2018-02-03T03:43:05.674Z,5.53
2018-02-03T03:45:32.584Z,5.60
2018-02-03T03:48:00.460Z,5.45
2018-02-03T03:50:27.377Z,4.85
2018-02-03T03:52:55.083Z,4.40
2018-02-03T03:55:21.979Z,4.70
2018-02-03T03:57:49.672Z,3.85
2018-02-03T04:00:16.611Z,3.90
2018-02-03T04:02:43.519Z,4.60
2018-02-03T04:05:10.441Z,4.60
2018-02-03T04:07:38.360Z,4.87
2018-02-03T04:10:06.036Z,5.20
2018-02-03T04:12:32.998Z,5.10
2018-02-03T04:14:59.924Z,5.15
2018-02-03T04:17:27.751Z,4.85
2018-02-03T04:19:54.680Z,5.57
2018-02-03T04:22:21.615Z,6.28
2018-02-03T04:24:48.536Z,5.30
2018-02-03T04:27:15.467Z,6.03
2018-02-03T04:29:42.389Z,5.35
2018-02-03T04:32:10.092Z,5.00
2018-02-03T04:34:37.006Z,5.10
2018-02-03T04:37:03.908Z,5.68
2018-02-03T04:39:30.850Z,4.85
2018-02-03T04:41:57.760Z,4.72
2018-02-03T04:44:24.686Z,5.75
2018-02-03T04:46:51.590Z,3.80
2018-02-03T04:49:18.527Z,3.85
2018-02-03T04:51:45.434Z,5.00
2018-02-03T04:54:12.361Z,4.40
2018-02-03T04:56:39.278Z,5.12
2018-02-03T04:59:07.164Z,4.00
2018-02-03T05:01:34.828Z,3.92
2018-02-03T05:04:02.532Z,4.53
2018-02-03T05:06:29.433Z,4.07
2018-02-03T05:08:57.168Z,3.87
2018-02-03T05:11:25.060Z,4.10
2018-02-03T05:13:52.773Z,3.67
2018-02-03T05:16:19.706Z,4.53
2018-02-03T05:18:46.637Z,3.58
2018-02-03T05:21:13.533Z,3.78
2018-02-03T05:23:40.456Z,3.30
2018-02-03T05:26:08.343Z,4.45
2018-02-03T05:28:35.263Z,3.72
2018-02-03T05:31:02.176Z,3.95
2018-02-03T05:33:29.108Z,3.30
2018-02-03T05:35:56.020Z,3.85
2018-02-03T05:38:22.953Z,3.87
2018-02-03T05:40:49.856Z,4.62
2018-02-03T05:43:16.785Z,4.50
2018-02-03T05:45:43.689Z,3.70
2018-02-03T05:48:10.621Z,3.60
2018-02-03T05:50:37.529Z,3.62
2018-02-03T05:53:04.452Z,3.80
2018-02-03T05:55:35.491Z,4.25
2018-02-03T05:58:03.360Z,3.12
2018-02-03T06:00:31.056Z,3.53
2018-02-03T06:02:57.969Z,3.62
2018-02-03T06:05:25.664Z,4.62
2018-02-03T06:07:52.566Z,2.92
2018-02-03T06:10:20.274Z,4.35
2018-02-03T06:12:47.185Z,3.97
2018-02-03T06:15:14.105Z,3.95
2018-02-03T06:17:41.012Z,4.43
2018-02-03T06:20:07.924Z,3.95
2018-02-03T06:22:34.853Z,3.78
2018-02-03T06:25:02.564Z,4.22
2018-02-03T06:27:29.501Z,4.60
2018-02-03T06:29:56.404Z,3.37
2018-02-03T06:32:24.101Z,4.30
2018-02-03T06:34:51.004Z,3.15
2018-02-03T06:37:18.748Z,3.17
2018-02-03T06:39:45.654Z,3.45
2018-02-03T06:42:12.551Z,3.90
2018-02-03T06:44:40.246Z,3.87
2018-02-03T06:47:07.175Z,3.30
2018-02-03T06:49:34.079Z,4.20
2018-02-03T06:52:01.996Z,3.58
2018-02-03T06:54:28.996Z,3.40
2018-02-03T06:56:55.899Z,3.55
2018-02-03T06:59:22.802Z,3.45
2018-02-03T07:01:50.514Z,3.30
2018-02-03T07:04:17.412Z,2.97
2018-02-03T07:06:45.119Z,3.42
2018-02-03T07:09:12.030Z,3.85
2018-02-03T07:11:39.734Z,4.05
2018-02-03T07:14:06.631Z,3.05
2018-02-03T07:16:34.324Z,3.50
2018-02-03T07:19:02.140Z,4.00
2018-02-03T07:21:29.072Z,3.40
2018-02-03T07:23:55.982Z,4.00
2018-02-03T07:26:22.916Z,4.15
2018-02-03T07:28:49.833Z,3.45
2018-02-03T07:31:16.768Z,3.35
2018-02-03T07:33:44.435Z,3.97
2018-02-03T07:36:12.140Z,4.53
2018-02-03T07:38:39.039Z,3.90
2018-02-03T07:41:06.727Z,3.58
2018-02-03T07:43:33.640Z,4.82
2018-02-03T07:46:01.372Z,4.35
2018-02-03T07:48:29.040Z,4.75
2018-02-03T07:50:56.928Z,4.03
2018-02-03T07:53:23.857Z,4.65
2018-02-03T07:55:50.783Z,4.45
2018-02-03T07:58:17.696Z,3.67
2018-02-03T08:00:45.547Z,3.95
2018-02-03T08:03:13.218Z,5.00
2018-02-03T08:05:41.078Z,3.83
2018-02-03T08:08:08.759Z,3.87
2018-02-03T08:10:35.696Z,4.80
2018-02-03T08:13:02.596Z,3.92
2018-02-03T08:15:29.532Z,4.28
2018-02-03T08:17:56.464Z,3.92
2018-02-03T08:20:23.400Z,4.40
2018-02-03T08:22:51.235Z,4.50
2018-02-03T08:25:20.095Z,3.67
2018-02-03T08:27:47.023Z,3.30
2018-02-03T08:30:13.976Z,3.87
2018-02-03T08:32:44.728Z,3.67
2018-02-03T08:35:12.576Z,4.03
2018-02-03T08:37:40.466Z,4.43
2018-02-03T08:40:10.715Z,4.70
2018-02-03T08:42:37.622Z,4.72
2018-02-03T08:45:07.244Z,4.50
2018-02-03T08:47:34.157Z,4.60
2018-02-03T08:50:01.132Z,5.50
2018-02-03T08:52:28.824Z,4.05
2018-02-03T08:54:56.664Z,5.37
2018-02-03T08:57:23.584Z,5.15
2018-02-03T08:59:50.520Z,5.50
2018-02-03T09:02:18.329Z,5.55
2018-02-03T09:04:45.253Z,4.68
2018-02-03T09:07:12.927Z,4.50
2018-02-03T09:09:39.856Z,5.53
2018-02-03T09:12:07.529Z,4.55
2018-02-03T09:14:35.223Z,4.80
2018-02-03T09:17:02.133Z,3.50
2018-02-03T09:19:29.837Z,4.80
2018-02-03T09:21:56.762Z,4.32
2018-02-03T09:24:23.702Z,6.90
2018-02-03T09:26:50.608Z,5.50
2018-02-03T09:29:19.319Z,3.83
2018-02-03T09:31:46.241Z,4.53
2018-02-03T09:34:14.966Z,5.00
2018-02-03T09:36:42.820Z,4.80
2018-02-03T09:39:09.747Z,4.53
2018-02-03T09:41:37.414Z,4.70
2018-02-03T09:44:05.112Z,4.30
2018-02-03T09:46:38.487Z,5.75
2018-02-03T09:49:05.441Z,4.87
2018-02-03T09:51:32.362Z,5.35
2018-02-03T09:53:59.293Z,4.55
2018-02-03T09:56:26.967Z,4.32
2018-02-03T09:58:54.659Z,6.03
2018-02-03T10:01:21.576Z,5.32
2018-02-03T10:03:49.272Z,4.18
2018-02-03T10:06:16.184Z,5.03
2018-02-03T10:08:43.876Z,5.15
2018-02-03T10:11:10.779Z,4.60
2018-02-03T10:13:38.515Z,4.20
2018-02-03T10:16:05.439Z,4.93
2018-02-03T10:18:32.358Z,3.30
2018-02-03T10:20:59.322Z,3.25
2018-02-03T10:23:27.161Z,3.53
2018-02-03T10:25:54.089Z,2.90
2018-02-03T10:28:21.787Z,2.60
2018-02-03T10:30:48.708Z,3.53
2018-02-03T10:33:15.637Z,4.60
2018-02-03T10:35:44.328Z,3.10
2018-02-03T11:13:22.608Z,4.35
2018-02-03T11:15:49.508Z,5.70
2018-02-03T11:18:17.203Z,4.28
2018-02-03T11:20:44.104Z,4.72
2018-02-03T11:23:11.802Z,6.22
2018-02-03T11:25:38.701Z,5.10
2018-02-03T11:28:05.633Z,5.05
2018-02-03T11:30:32.540Z,4.87
2018-02-03T11:32:59.479Z,5.70
2018-02-03T11:35:26.380Z,4.90
2018-02-03T11:37:53.309Z,5.62
2018-02-03T11:40:20.235Z,5.47
2018-02-03T11:42:47.173Z,5.10
2018-02-03T11:45:14.093Z,6.28
2018-02-03T11:47:41.961Z,5.93
2018-02-03T11:50:09.810Z,4.50
2018-02-03T11:52:37.511Z,4.57
2018-02-03T11:55:04.413Z,4.90
2018-02-03T11:57:32.109Z,5.00
2018-02-03T12:00:03.644Z,4.80
2018-02-03T12:02:30.564Z,5.85
2018-02-03T12:04:58.233Z,4.82
2018-02-03T12:07:25.932Z,4.85
2018-02-03T12:09:52.841Z,5.18
2018-02-03T12:12:19.772Z,6.25
2018-02-03T12:14:47.435Z,5.50
2018-02-03T12:17:17.038Z,5.40
2018-02-03T12:19:45.936Z,5.60
2018-02-03T12:22:13.636Z,5.68
2018-02-03T12:24:40.531Z,4.37
2018-02-03T12:27:08.412Z,5.70
2018-02-03T12:29:35.352Z,5.03
2018-02-03T12:32:03.032Z,5.60
2018-02-03T12:34:29.961Z,4.97
2018-02-03T12:36:57.631Z,4.55
2018-02-03T12:39:25.320Z,5.03
2018-02-03T12:41:52.226Z,4.72
2018-02-03T12:44:19.912Z,5.30
2018-02-03T12:46:46.805Z,6.28
2018-02-03T12:49:13.740Z,5.65
2018-02-03T12:51:40.653Z,5.50
2018-02-03T12:54:07.623Z,5.78
2018-02-03T12:56:35.520Z,4.93
2018-02-03T12:59:02.457Z,5.35
2018-02-03T13:01:29.364Z,5.47
2018-02-03T13:03:56.300Z,6.53
2018-02-03T13:06:24.247Z,6.78
2018-02-03T13:08:51.920Z,6.72
2018-02-03T13:11:18.856Z,27.67
2018-02-03T13:13:45.801Z,7.07
2018-02-03T13:16:12.750Z,5.93
2018-02-03T13:18:39.680Z,6.72
2018-02-03T13:21:10.443Z,6.22
2018-02-03T13:23:38.263Z,6.65
2018-02-03T13:26:05.194Z,6.57
2018-02-03T13:28:33.105Z,6.57
2018-02-03T13:31:00.009Z,6.32
2018-02-03T13:33:26.952Z,6.70
2018-02-03T13:35:53.864Z,7.68
2018-02-03T13:38:20.820Z,7.60
2018-02-03T13:40:49.673Z,6.72
2018-02-03T13:43:16.636Z,8.18
2018-02-03T13:45:43.605Z,7.90
2018-02-03T13:48:11.543Z,7.05
2018-02-03T13:50:39.089Z,7.97
2018-02-03T13:53:06.037Z,8.88
2018-02-03T13:55:32.935Z,8.60
2018-02-03T13:58:00.852Z,7.70
2018-02-03T14:00:27.775Z,8.10
2018-02-03T14:02:56.508Z,7.90
2018-02-03T14:05:23.424Z,8.10
2018-02-03T14:07:51.305Z,8.23
2018-02-03T14:10:20.159Z,7.00
2018-02-03T14:12:48.948Z,8.07
2018-02-03T14:15:16.618Z,8.40
2018-02-03T14:17:44.436Z,7.85
2018-02-03T14:20:12.282Z,8.80
2018-02-03T14:22:41.161Z,8.80
2018-02-03T14:25:08.076Z,9.25
2018-02-03T14:27:35.779Z,8.60
2018-02-03T14:30:02.712Z,8.77
2018-02-03T14:32:30.047Z,5.65
2018-02-03T14:34:57.728Z,7.95
2018-02-03T14:37:24.663Z,8.95
2018-02-03T14:39:52.567Z,9.75
2018-02-03T14:42:19.480Z,8.80
2018-02-03T14:44:46.461Z,6.80
2018-02-03T14:47:16.636Z,8.60
2018-02-03T14:49:43.578Z,9.20
2018-02-03T14:52:10.531Z,8.93
2018-02-03T14:54:39.387Z,7.93
2018-02-03T14:57:06.318Z,8.88
2018-02-03T14:59:33.227Z,9.05
2018-02-03T15:02:00.178Z,8.00
2018-02-03T15:04:27.092Z,9.60
2018-02-03T15:06:54.938Z,9.60
2018-02-03T15:09:22.616Z,9.38
2018-02-03T15:11:49.561Z,10.55
2018-02-03T15:14:16.498Z,10.30
2018-02-03T15:16:44.237Z,10.70
2018-02-03T15:19:11.148Z,10.48
2018-02-03T15:21:40.136Z,11.23
2018-02-03T15:24:07.059Z,10.13
2018-02-03T15:26:35.953Z,10.73
2018-02-03T15:29:02.873Z,11.38
2018-02-03T15:31:30.581Z,9.73
2018-02-03T15:33:58.511Z,10.45
2018-02-03T15:36:28.732Z,9.25
2018-02-03T15:38:56.410Z,9.82
2018-02-03T15:41:23.372Z,10.15
2018-02-03T15:43:50.290Z,9.73
2018-02-03T15:46:18.151Z,10.15
2018-02-03T15:48:45.112Z,10.88
2018-02-03T15:51:12.054Z,9.02
2018-02-03T15:53:38.984Z,9.80
2018-02-03T15:56:06.008Z,10.65
2018-02-03T15:58:32.925Z,9.45
2018-02-03T16:01:00.842Z,10.65
2018-02-03T16:03:27.798Z,11.85
2018-02-03T16:05:54.745Z,9.65
2018-02-03T16:08:21.652Z,9.93
2018-02-03T16:10:49.505Z,11.05
2018-02-03T16:13:17.332Z,10.80
2018-02-03T16:15:44.263Z,10.95
2018-02-03T16:18:11.172Z,10.52
2018-02-03T16:20:40.050Z,11.80
2018-02-03T16:23:06.984Z,10.23
2018-02-03T16:25:33.915Z,11.60
2018-02-03T16:28:00.824Z,9.55
2018-02-03T16:30:28.950Z,11.15
2018-02-03T16:32:55.879Z,10.55
2018-02-03T16:35:24.760Z,11.30
2018-02-03T16:37:51.693Z,11.90
2018-02-03T16:40:18.639Z,12.75
2018-02-03T16:42:46.476Z,10.65
2018-02-03T16:45:13.425Z,12.15
2018-02-03T16:47:40.352Z,10.98
2018-02-03T16:50:07.280Z,11.20
2018-02-03T16:52:34.195Z,11.45
2018-02-03T16:55:01.128Z,12.80
2018-02-03T16:57:28.062Z,11.30
2018-02-03T16:59:55.991Z,13.20
2018-02-03T17:02:22.956Z,10.18
2018-02-03T17:04:49.913Z,11.70
2018-02-03T17:07:16.848Z,12.40
2018-02-03T17:09:44.800Z,12.07
2018-02-03T17:12:12.720Z,12.15
2018-02-03T17:14:40.428Z,10.38
2018-02-03T17:17:08.383Z,10.32
2018-02-03T17:19:36.232Z,11.65
2018-02-03T17:22:03.177Z,14.45
2018-02-03T17:24:31.849Z,11.05
2018-02-03T17:26:59.560Z,11.85
2018-02-03T17:29:28.453Z,10.38
2018-02-03T17:31:56.255Z,11.05
2018-02-03T17:34:23.175Z,10.80
2018-02-03T17:36:50.872Z,10.63
2018-02-03T17:39:17.810Z,12.30
2018-02-03T17:41:44.753Z,10.45
2018-02-03T17:44:12.453Z,10.43
2018-02-03T17:46:40.344Z,10.20
2018-02-03T17:49:07.274Z,11.18
2018-02-03T17:51:34.204Z,11.05
2018-02-03T17:54:01.122Z,11.23
2018-02-03T17:56:28.822Z,10.93
2018-02-03T17:58:56.647Z,10.45
2018-02-03T18:01:23.584Z,10.73
2018-02-03T18:03:50.503Z,10.45
2018-02-03T18:06:17.440Z,9.27
2018-02-03T18:08:44.374Z,9.48
2018-02-03T18:11:17.505Z,8.98
2018-02-03T18:13:44.424Z,9.15
2018-02-03T18:16:12.312Z,8.63
2018-02-03T18:18:39.224Z,8.18
2018-02-03T18:21:06.160Z,11.25
2018-02-03T18:23:33.070Z,23.48
2018-02-03T18:26:00.798Z,8.05
2018-02-03T18:28:27.716Z,7.55
2018-02-03T18:30:54.668Z,8.20
2018-02-03T18:33:21.580Z,7.03
2018-02-03T18:35:48.528Z,7.90
2018-02-03T18:38:15.448Z,7.47
2018-02-03T18:40:43.157Z,9.18
2018-02-03T18:43:13.336Z,9.07
2018-02-03T18:45:44.004Z,7.50
2018-02-03T18:48:10.903Z,7.40
2018-02-03T18:50:38.603Z,6.62
2018-02-03T18:53:06.441Z,7.40
2018-02-03T18:55:34.147Z,7.32
2018-02-03T18:58:03.012Z,6.03
2018-02-03T19:00:30.866Z,7.37
2018-02-03T19:02:57.775Z,9.75
2018-02-03T19:05:24.712Z,9.05
2018-02-03T19:07:51.622Z,8.07
2018-02-03T19:10:18.565Z,7.43
2018-02-03T19:12:49.135Z,7.68
2018-02-03T19:15:17.081Z,8.50
2018-02-03T19:17:45.022Z,7.32
2018-02-03T19:20:11.988Z,6.45
2018-02-03T19:22:39.986Z,8.05
2018-02-03T19:25:06.944Z,6.57
2018-02-03T19:27:34.789Z,7.10
2018-02-03T19:30:01.728Z,7.12
2018-02-03T19:32:28.638Z,6.75
2018-02-03T19:34:55.572Z,8.07
2018-02-03T19:37:28.723Z,8.10
2018-02-03T19:39:59.508Z,7.68
2018-02-03T19:42:26.430Z,8.23
2018-02-03T19:44:53.379Z,7.97
2018-02-03T19:47:21.066Z,9.10
2018-02-03T19:49:48.915Z,8.60
2018-02-03T19:52:17.805Z,8.65
2018-02-03T19:54:46.708Z,8.88
2018-02-03T19:57:13.624Z,7.95
2018-02-03T19:59:41.323Z,8.90
2018-02-03T20:02:08.233Z,9.23
2018-02-03T20:04:35.965Z,9.00
2018-02-03T20:07:02.907Z,8.10
2018-02-03T20:09:29.864Z,6.25
2018-02-03T20:11:58.788Z,8.07
2018-02-03T20:14:25.725Z,8.20
2018-02-03T20:16:53.400Z,8.93
2018-02-03T20:19:20.336Z,8.70
2018-02-03T20:21:47.242Z,8.73
2018-02-03T20:24:14.186Z,8.57
2018-02-03T20:26:41.141Z,9.07
2018-02-03T20:29:08.991Z,9.73
2018-02-03T20:31:35.928Z,8.25
2018-02-03T20:34:02.872Z,8.40
2018-02-03T20:36:29.776Z,8.65
2018-02-03T20:38:56.702Z,9.30
2018-02-03T20:41:24.390Z,8.60
2018-02-03T20:43:51.332Z,7.32
2018-02-03T20:46:20.197Z,9.07
2018-02-03T20:48:47.929Z,8.07
2018-02-03T20:51:14.879Z,7.80
2018-02-03T20:53:41.817Z,9.05
2018-02-03T20:56:09.652Z,8.90
2018-02-03T20:58:36.604Z,9.82
2018-02-03T21:01:04.410Z,10.40
2018-02-03T21:03:31.357Z,9.90
2018-02-03T21:06:00.423Z,9.15
2018-02-03T21:08:27.368Z,10.15
2018-02-03T21:10:55.300Z,9.00
2018-02-03T23:19:11.892Z,17.35
2018-02-03T23:21:40.888Z,11.23
2018-02-03T23:24:07.808Z,12.27
2018-02-03T23:26:34.735Z,8.75
2018-02-03T23:29:01.648Z,13.00
2018-02-03T23:31:28.588Z,12.55
2018-02-03T23:33:55.511Z,10.20
2018-02-03T23:36:22.440Z,9.88
2018-02-03T23:38:50.112Z,9.80
2018-02-03T23:41:17.063Z,11.70
2018-02-03T23:43:44.778Z,10.55
2018-02-03T23:46:11.736Z,9.20
2018-02-03T23:48:38.662Z,10.02
2018-02-03T23:51:05.609Z,9.57
2018-02-03T23:53:32.528Z,10.52
2018-02-03T23:55:59.463Z,10.80
2018-02-03T23:58:27.168Z,10.48
